createdAt,value
2019-02-28T00:00:44.228Z,75.50
2019-02-28T00:03:12.923Z,73.95
2019-02-28T00:05:41.614Z,73.00
2019-02-28T00:08:10.262Z,71.85
2019-02-28T00:10:38.900Z,70.80
2019-02-28T00:13:07.594Z,68.02
2019-02-28T00:15:36.251Z,71.77
2019-02-28T00:18:04.917Z,72.82
2019-02-28T00:20:33.561Z,71.95
2019-02-28T00:23:02.196Z,73.95
2019-02-28T00:25:30.854Z,70.20
2019-02-28T00:27:59.567Z,67.70
2019-02-28T00:30:28.124Z,63.58
2019-02-28T00:32:59.396Z,65.05
2019-02-28T00:35:27.126Z,60.00
2019-02-28T00:37:56.696Z,61.50
2019-02-28T00:40:26.229Z,61.02
2019-02-28T00:42:54.937Z,57.38
2019-02-28T00:45:23.516Z,58.98
2019-02-28T00:47:52.108Z,57.13
2019-02-28T00:50:20.970Z,62.00
2019-02-28T00:52:49.622Z,56.88
2019-02-28T00:55:18.202Z,58.70
2019-02-28T00:57:46.900Z,55.45
2019-02-28T01:00:20.600Z,54.85
2019-02-28T01:02:53.490Z,56.40
2019-02-28T01:05:19.600Z,56.80
2019-02-28T01:07:49.065Z,66.42
2019-02-28T01:10:17.839Z,58.00
2019-02-28T01:12:46.521Z,56.90
2019-02-28T01:15:18.647Z,59.98
2019-02-28T01:20:16.435Z,58.08
2019-02-28T01:22:45.577Z,56.65
2019-02-28T01:25:16.797Z,52.55
2019-02-28T01:27:45.445Z,60.30
2019-02-28T01:30:15.290Z,57.38
2019-02-28T01:32:43.728Z,58.33
2019-02-28T01:35:12.358Z,58.35
2019-02-28T01:37:40.861Z,62.50
2019-02-28T01:40:11.964Z,59.38
2019-02-28T01:42:40.538Z,59.75
2019-02-28T01:45:11.110Z,51.98
2019-02-28T01:47:39.765Z,54.58
2019-02-28T01:50:10.372Z,60.78
2019-02-28T01:52:44.364Z,59.75
2019-02-28T01:55:10.710Z,59.33
2019-02-28T01:57:42.322Z,55.58
2019-02-28T02:00:15.199Z,55.58
2019-02-28T02:02:43.748Z,55.58
2019-02-28T02:05:12.306Z,54.38
2019-02-28T02:07:40.882Z,63.15
2019-02-28T02:10:14.014Z,58.45
2019-02-28T02:12:42.591Z,56.20
2019-02-28T02:15:11.934Z,55.43
2019-02-28T02:17:40.629Z,54.00
2019-02-28T02:20:11.269Z,61.10
2019-02-28T02:22:40.612Z,55.03
2019-02-28T02:25:10.514Z,58.73
2019-02-28T02:27:39.172Z,63.78
2019-02-28T02:30:16.847Z,56.98
2019-02-28T02:32:45.514Z,62.10
2019-02-28T02:35:14.143Z,57.70
2019-02-28T02:37:42.779Z,59.25
2019-02-28T02:40:13.543Z,55.55
2019-02-28T02:42:47.625Z,49.45
2019-02-28T02:45:14.315Z,65.95
2019-02-28T02:47:42.981Z,48.45
2019-02-28T02:50:15.251Z,56.48
2019-02-28T02:52:43.936Z,56.00
2019-02-28T02:55:13.334Z,51.68
2019-02-28T02:57:42.041Z,52.30
2019-02-28T03:00:16.813Z,50.58
2019-02-28T03:02:45.523Z,54.75
2019-02-28T03:05:15.774Z,43.48
2019-02-28T03:07:44.443Z,42.80
2019-02-28T03:10:17.300Z,52.83
2019-02-28T03:12:45.509Z,49.70
2019-02-28T03:15:16.010Z,45.28
2019-02-28T03:17:47.323Z,47.98
2019-02-28T03:20:15.046Z,58.13
2019-02-28T03:22:43.722Z,51.40
2019-02-28T03:25:14.736Z,49.90
2019-02-28T03:27:43.378Z,49.98
2019-02-28T03:30:28.371Z,52.65
2019-02-28T03:32:48.133Z,55.10
2019-02-28T03:35:16.799Z,56.05
2019-02-28T03:37:45.507Z,59.75
2019-02-28T03:40:14.781Z,57.83
2019-02-28T03:42:43.400Z,55.05
2019-02-28T03:45:14.386Z,65.45
2019-02-28T03:47:42.959Z,71.82
2019-02-28T03:50:12.612Z,71.33
2019-02-28T03:52:43.775Z,74.90
2019-02-28T03:55:14.063Z,72.10
2019-02-28T03:57:42.639Z,73.97
2019-02-28T04:00:28.915Z,75.35
2019-02-28T04:02:58.662Z,79.72
2019-02-28T04:05:28.108Z,80.53
2019-02-28T04:07:55.442Z,76.60
2019-02-28T04:10:24.071Z,70.12
2019-02-28T04:12:52.638Z,76.82
2019-02-28T04:15:21.354Z,71.60
2019-02-28T04:17:49.986Z,81.17
2019-02-28T04:20:18.629Z,74.40
2019-02-28T04:22:47.318Z,79.67
2019-02-28T04:25:22.496Z,82.95
2019-02-28T04:27:46.257Z,82.42
2019-02-28T04:30:15.682Z,78.67
2019-02-28T04:32:44.323Z,78.42
2019-02-28T04:35:12.969Z,80.80
2019-02-28T04:37:46.947Z,78.17
2019-02-28T04:40:13.047Z,84.75
2019-02-28T04:42:41.703Z,87.47
2019-02-28T04:45:12.302Z,81.95
2019-02-28T04:47:41.651Z,89.60
2019-02-28T04:50:12.831Z,72.97
2019-02-28T04:52:46.790Z,89.97
2019-02-28T04:55:11.861Z,80.10
2019-02-28T04:57:40.492Z,87.85
2019-02-28T05:00:12.108Z,83.62
2019-02-28T05:02:40.731Z,83.72
2019-02-28T05:05:12.087Z,94.07
2019-02-28T05:07:39.661Z,87.80
2019-02-28T05:10:09.503Z,88.20
2019-02-28T05:12:40.019Z,88.78
2019-02-28T05:15:11.288Z,88.30
2019-02-28T05:17:39.926Z,83.20
2019-02-28T05:20:10.729Z,90.03
2019-02-28T05:22:40.467Z,84.85
2019-02-28T05:25:17.290Z,94.07
2019-02-28T05:27:42.341Z,82.95
2019-02-28T05:30:19.536Z,82.97
2019-02-28T05:32:47.898Z,86.25
2019-02-28T05:35:16.484Z,83.52
2019-02-28T05:37:48.079Z,88.90
2019-02-28T05:40:15.992Z,88.40
2019-02-28T05:42:44.908Z,94.70
2019-02-28T05:45:14.735Z,89.97
2019-02-28T05:47:46.921Z,89.85
2019-02-28T05:50:16.642Z,93.52
2019-02-28T05:52:44.526Z,91.75
2019-02-28T05:55:13.170Z,91.28
2019-02-28T05:57:43.379Z,93.87
2019-02-28T06:00:15.336Z,86.17
2019-02-28T06:02:43.964Z,88.05
2019-02-28T06:05:12.808Z,94.17
2019-02-28T06:07:41.928Z,99.17
2019-02-28T06:10:12.354Z,95.60
2019-02-28T06:12:43.667Z,98.80
2019-02-28T06:15:13.237Z,93.72
2019-02-28T06:17:41.886Z,89.05
2019-02-28T06:20:12.022Z,89.60
2019-02-28T06:22:40.719Z,93.47
2019-02-28T06:25:10.672Z,94.47
2019-02-28T06:27:41.832Z,93.97
2019-02-28T06:30:17.334Z,92.67
2019-02-28T06:32:45.968Z,94.58
2019-02-28T06:35:18.506Z,97.60
2019-02-28T06:37:44.894Z,93.55
2019-02-28T06:40:17.206Z,94.00
2019-02-28T06:42:46.768Z,90.83
2019-02-28T06:45:17.701Z,94.52
2019-02-28T06:47:49.675Z,90.50
2019-02-28T06:50:16.842Z,87.45
2019-02-28T06:52:45.487Z,91.87
2019-02-28T06:55:24.896Z,108.45
2019-02-28T06:57:53.615Z,96.85
2019-02-28T07:00:22.411Z,99.25
2019-02-28T07:02:50.960Z,99.15
2019-02-28T07:05:24.443Z,100.20
2019-02-28T07:07:50.206Z,103.17
2019-02-28T07:10:19.019Z,93.17
2019-02-28T07:12:47.934Z,92.00
2019-02-28T07:15:16.596Z,96.37
2019-02-28T07:17:46.399Z,86.67
2019-02-28T07:20:18.963Z,94.85
2019-02-28T07:22:47.577Z,101.38
2019-02-28T07:25:16.234Z,89.77
2019-02-28T07:27:46.222Z,89.25
2019-02-28T07:30:18.741Z,87.25
2019-02-28T07:32:47.614Z,83.52
2019-02-28T07:35:16.317Z,74.47
2019-02-28T07:37:44.922Z,81.08
2019-02-28T07:40:16.271Z,68.90
2019-02-28T07:42:45.207Z,76.33
2019-02-28T07:45:14.987Z,75.83
2019-02-28T07:47:43.553Z,67.15
2019-02-28T07:50:14.603Z,69.58
2019-02-28T07:52:44.295Z,58.45
2019-02-28T07:55:22.119Z,55.08
2019-02-28T07:57:53.275Z,60.00
2019-02-28T08:00:25.188Z,62.58
2019-02-28T08:02:53.807Z,54.93
2019-02-28T08:05:22.459Z,55.92
2019-02-28T08:07:52.660Z,66.92
2019-02-28T08:10:29.234Z,60.17
2019-02-28T08:12:57.986Z,64.90
2019-02-28T08:15:28.449Z,62.50
2019-02-28T08:17:57.165Z,62.73
2019-02-28T08:20:25.818Z,67.10
2019-02-28T08:22:56.740Z,60.70
2019-02-28T08:25:24.832Z,63.68
2019-02-28T08:27:56.355Z,71.25
2019-02-28T08:30:31.903Z,63.23
2019-02-28T08:33:00.413Z,63.15
2019-02-28T08:35:34.001Z,73.57
2019-02-28T08:37:59.319Z,65.37
2019-02-28T08:40:28.463Z,68.45
2019-02-28T08:42:57.121Z,69.90
2019-02-28T08:45:25.838Z,70.40
2019-02-28T08:47:56.735Z,70.32
2019-02-28T08:50:26.595Z,68.25
2019-02-28T08:53:05.775Z,71.12
2019-02-28T08:55:34.429Z,69.22
2019-02-28T08:58:06.067Z,72.30
2019-02-28T09:00:33.504Z,71.35
2019-02-28T09:03:02.261Z,69.03
2019-02-28T09:05:30.930Z,72.05
2019-02-28T09:07:59.624Z,77.32
2019-02-28T09:10:28.267Z,64.60
2019-02-28T09:12:56.879Z,70.37
2019-02-28T09:15:30.139Z,67.17
2019-02-28T09:17:59.424Z,67.37
2019-02-28T09:20:27.091Z,76.42
2019-02-28T09:23:01.684Z,71.17
2019-02-28T09:25:27.028Z,73.47
2019-02-28T09:27:55.958Z,80.75
2019-02-28T09:30:29.733Z,76.17
2019-02-28T09:32:58.038Z,71.50
2019-02-28T09:35:26.664Z,76.80
2019-02-28T09:37:55.242Z,81.45
2019-02-28T09:40:25.653Z,74.22
2019-02-28T09:42:54.181Z,65.47
2019-02-28T09:45:31.803Z,62.83
2019-02-28T09:48:02.044Z,61.58
2019-02-28T09:50:32.937Z,65.70
2019-02-28T09:53:01.191Z,66.22
2019-02-28T09:55:34.168Z,74.80
2019-02-28T09:57:59.971Z,75.30
2019-02-28T10:00:29.026Z,71.80
2019-02-28T10:02:57.718Z,70.17
2019-02-28T10:05:26.498Z,65.87
2019-02-28T10:07:55.151Z,70.83
2019-02-28T10:10:28.451Z,68.37
2019-02-28T10:12:57.084Z,76.82
2019-02-28T10:15:25.844Z,72.60
2019-02-28T10:17:54.545Z,72.62
2019-02-28T10:20:31.968Z,71.95
2019-02-28T10:23:00.670Z,81.00
2019-02-28T10:25:29.323Z,75.55
2019-02-28T10:28:01.683Z,77.95
2019-02-28T10:30:32.227Z,75.87
2019-02-28T10:32:58.734Z,76.45
2019-02-28T10:35:27.381Z,84.62
2019-02-28T10:37:58.492Z,80.97
2019-02-28T10:40:27.146Z,79.58
2019-02-28T10:42:55.890Z,75.83
2019-02-28T10:45:25.218Z,64.42
2019-02-28T10:47:53.841Z,71.80
2019-02-28T10:50:33.889Z,73.65
2019-02-28T10:53:05.550Z,73.78
2019-02-28T10:55:33.662Z,71.17
2019-02-28T10:58:02.370Z,79.72
2019-02-28T11:00:41.479Z,87.75
2019-02-28T11:03:10.206Z,74.15
2019-02-28T11:05:40.956Z,84.35
2019-02-28T11:08:12.835Z,88.00
2019-02-28T11:10:44.285Z,79.75
2019-02-28T11:13:20.249Z,84.32
2019-02-28T11:15:49.461Z,84.30
2019-02-28T11:18:18.141Z,88.03
2019-02-28T11:20:46.723Z,84.50
2019-02-28T11:23:15.866Z,85.62
2019-02-28T11:25:45.224Z,86.05
2019-02-28T11:28:14.270Z,83.70
2019-02-28T11:30:45.596Z,86.75
2019-02-28T11:33:14.964Z,83.40
2019-02-28T11:35:43.623Z,83.58
2019-02-28T11:38:12.297Z,89.67
2019-02-28T11:40:43.904Z,87.20
2019-02-28T11:43:11.109Z,85.53
2019-02-28T11:45:44.888Z,82.30
2019-02-28T11:48:20.210Z,90.30
2019-02-28T11:50:46.563Z,79.35
2019-02-28T11:53:15.239Z,93.07
2019-02-28T11:55:43.903Z,88.10
2019-02-28T11:58:16.540Z,77.90
2019-02-28T12:00:42.778Z,81.17
2019-02-28T12:03:11.404Z,84.20
2019-02-28T12:05:40.045Z,78.78
2019-02-28T12:08:10.417Z,78.70
2019-02-28T12:10:39.054Z,80.65
2019-02-28T12:13:07.532Z,81.53
2019-02-28T12:15:39.183Z,81.15
2019-02-28T12:18:08.166Z,77.03
2019-02-28T12:20:36.813Z,82.95
2019-02-28T12:23:05.460Z,79.00
2019-02-28T12:25:34.052Z,82.25
2019-02-28T12:28:06.353Z,74.30
2019-02-28T12:30:34.156Z,79.72
2019-02-28T12:33:02.727Z,79.12
2019-02-28T12:35:37.530Z,76.15
2019-02-28T12:38:01.842Z,78.57
2019-02-28T12:40:34.307Z,77.58
2019-02-28T12:43:08.518Z,78.00
2019-02-28T12:45:41.262Z,73.97
2019-02-28T12:48:09.911Z,78.00
2019-02-28T12:50:38.576Z,76.67
2019-02-28T12:53:07.222Z,74.45
2019-02-28T12:55:38.922Z,73.70
2019-02-28T12:58:06.222Z,79.00
2019-02-28T13:00:47.885Z,73.40
2019-02-28T13:03:20.172Z,78.90
2019-02-28T13:05:48.052Z,73.25
2019-02-28T13:08:17.172Z,74.97
2019-02-28T13:10:45.826Z,80.75
2019-02-28T13:13:14.428Z,71.02
2019-02-28T13:15:45.463Z,77.15
2019-02-28T13:18:13.465Z,78.52
2019-02-28T13:20:42.129Z,78.35
2019-02-28T13:23:10.837Z,74.80
2019-02-28T13:25:39.495Z,82.30
2019-02-28T13:28:08.481Z,79.47
2019-02-28T13:30:39.831Z,88.75
2019-02-28T13:33:10.867Z,90.45
2019-02-28T13:35:45.329Z,85.57
2019-02-28T13:38:10.167Z,84.20
2019-02-28T13:40:40.842Z,87.02
2019-02-28T13:43:09.089Z,79.27
2019-02-28T13:45:37.702Z,82.95
2019-02-28T13:48:06.394Z,82.65
2019-02-28T13:50:36.593Z,88.70
2019-02-28T13:53:17.386Z,84.13
2019-02-28T13:58:05.609Z,85.53
2019-02-28T14:00:35.898Z,86.02
2019-02-28T14:03:16.861Z,85.15
2019-02-28T14:05:44.609Z,83.20
2019-02-28T14:08:13.247Z,84.10
2019-02-28T14:10:41.841Z,89.22
2019-02-28T14:13:10.489Z,80.72
2019-02-28T14:15:51.616Z,90.17
2019-02-28T14:18:18.229Z,86.40
2019-02-28T14:20:49.051Z,89.03
2019-02-28T14:23:20.097Z,87.42
2019-02-28T14:25:47.535Z,93.20
2019-02-28T14:28:16.202Z,96.97
2019-02-28T14:30:44.851Z,86.37
2019-02-28T14:33:16.146Z,86.95
2019-02-28T14:35:43.868Z,86.42
2019-02-28T14:38:12.519Z,88.42
2019-02-28T14:40:41.210Z,84.97
2019-02-28T14:43:09.865Z,91.82
2019-02-28T14:45:42.921Z,88.25
2019-02-28T14:48:11.435Z,90.25
2019-02-28T14:50:40.099Z,85.57
2019-02-28T14:53:13.020Z,91.80
2019-02-28T14:55:39.562Z,86.10
2019-02-28T14:58:08.256Z,85.67
2019-02-28T15:00:38.947Z,86.00
2019-02-28T15:03:07.145Z,91.92
2019-02-28T15:05:38.269Z,88.00
2019-02-28T15:08:06.925Z,96.67
2019-02-28T15:10:35.704Z,85.92
2019-02-28T15:13:05.070Z,98.62
2019-02-28T15:15:35.905Z,91.08
2019-02-28T15:18:04.363Z,95.67
2019-02-28T15:20:33.306Z,88.47
2019-02-28T15:23:02.109Z,89.75
2019-02-28T15:25:31.024Z,96.45
2019-02-28T15:27:59.681Z,94.67
2019-02-28T15:30:39.217Z,94.55
2019-02-28T15:33:07.780Z,92.40
2019-02-28T15:35:36.432Z,99.13
2019-02-28T15:38:05.661Z,94.37
2019-02-28T15:40:40.725Z,93.33
2019-02-28T15:43:09.499Z,97.05
2019-02-28T15:45:38.096Z,100.70
2019-02-28T15:48:06.730Z,101.22
2019-02-28T15:50:35.354Z,100.72
2019-02-28T15:53:04.010Z,97.47
2019-02-28T15:55:35.113Z,95.32
2019-02-28T15:58:05.800Z,109.78
2019-02-28T16:00:36.841Z,95.38
